Time;durP1;ratioP1;P1;durP2;ratioP2;P2;SDS_P1;SDS_P2;PMS_P1;PMS_P2;Temp;Humidity;BMP_temperature;BMP_pressure;BME280_temperature;BME280_humidity;BME280_pressure;Samples;Min_cycle;Max_cycle;Signal;HPM_P1;HPM_P2
2020/12/17 00:02:14;;;;;;;4.45;3.40;;;10.90;99.90;;;;;;5089553;28;20308;-78
2020/12/17 00:04:41;;;;;;;3.75;3.42;;;11.00;99.90;;;;;;5091053;28;20218;-79
2020/12/17 00:07:07;;;;;;;4.68;3.80;;;11.00;99.90;;;;;;5091102;28;20281;-77
2020/12/17 00:09:34;;;;;;;4.60;3.35;;;11.00;99.90;;;;;;5091371;28;20289;-80
2020/12/17 00:12:00;;;;;;;3.88;3.38;;;11.00;99.90;;;;;;5092859;28;20198;-77
2020/12/17 00:14:27;;;;;;;6.65;4.20;;;11.00;99.90;;;;;;5092867;28;20206;-78
2020/12/17 00:16:53;;;;;;;4.18;3.78;;;11.00;99.90;;;;;;5092856;28;20281;-78
2020/12/17 00:19:19;;;;;;;6.05;4.60;;;11.00;99.90;;;;;;5093125;28;20281;-77
2020/12/17 00:21:46;;;;;;;5.07;3.83;;;11.00;99.90;;;;;;5092787;28;20223;-78
2020/12/17 00:24:12;;;;;;;4.68;3.58;;;11.00;99.90;;;;;;5092912;28;20308;-78
2020/12/17 00:26:39;;;;;;;4.80;3.53;;;11.00;99.90;;;;;;5081084;28;20225;-77
2020/12/17 00:29:05;;;;;;;4.55;3.60;;;10.90;99.90;;;;;;5077653;28;20230;-77
2020/12/17 00:31:32;;;;;;;5.55;4.18;;;11.00;99.90;;;;;;5093349;28;20203;-78
2020/12/17 00:33:58;;;;;;;5.65;4.38;;;11.00;99.90;;;;;;5092870;28;20660;-77
2020/12/17 00:36:24;;;;;;;7.82;4.57;;;11.00;99.90;;;;;;5092767;28;20194;-77
2020/12/17 00:38:51;;;;;;;6.80;4.25;;;10.90;99.90;;;;;;5092853;28;20285;-77
2020/12/17 00:41:18;;;;;;;5.00;4.60;;;10.90;99.90;;;;;;5092162;28;20205;-77
2020/12/17 00:43:46;;;;;;;7.28;4.10;;;10.80;99.90;;;;;;5092808;28;20228;-77
2020/12/17 00:46:14;;;;;;;4.30;3.90;;;10.80;99.90;;;;;;5092593;28;20208;-78
2020/12/17 00:48:41;;;;;;;5.32;4.38;;;10.80;99.90;;;;;;5092820;28;20197;-78
2020/12/17 00:51:08;;;;;;;5.00;4.53;;;10.70;99.90;;;;;;5092803;28;20254;-79
2020/12/17 00:53:35;;;;;;;7.07;4.63;;;10.70;99.90;;;;;;5092711;28;20633;-79
2020/12/17 00:56:01;;;;;;;5.70;4.72;;;10.60;99.90;;;;;;5092649;28;20205;-79
2020/12/17 00:58:27;;;;;;;4.85;4.43;;;10.60;99.90;;;;;;5092637;28;20239;-78
2020/12/17 01:00:55;;;;;;;6.63;4.90;;;10.60;99.90;;;;;;5082511;28;20236;-78
2020/12/17 01:03:21;;;;;;;5.50;4.88;;;10.50;99.90;;;;;;5072454;28;20293;-79
2020/12/17 01:05:47;;;;;;;6.32;4.80;;;10.50;99.90;;;;;;5089376;28;20226;-78
2020/12/17 01:08:14;;;;;;;7.78;5.38;;;10.50;99.90;;;;;;5092279;28;20230;-79
2020/12/17 01:10:40;;;;;;;5.78;5.18;;;10.40;99.90;;;;;;5092561;28;20206;-79
2020/12/17 01:13:06;;;;;;;7.05;5.38;;;10.40;99.90;;;;;;5092696;28;20671;-79
2020/12/17 01:15:33;;;;;;;5.53;5.03;;;10.40;99.90;;;;;;5092336;28;20202;-79
2020/12/17 01:18:00;;;;;;;5.93;5.43;;;10.40;99.90;;;;;;5092516;28;20208;-79
2020/12/17 01:20:26;;;;;;;7.55;5.88;;;10.50;99.90;;;;;;5092287;28;20712;-78
2020/12/17 01:22:54;;;;;;;8.38;5.53;;;10.50;99.90;;;;;;5092296;28;20206;-78
2020/12/17 01:25:20;;;;;;;8.40;5.38;;;10.50;99.90;;;;;;5092128;28;20226;-79
2020/12/17 01:27:47;;;;;;;7.43;5.70;;;10.60;99.90;;;;;;5092215;28;20281;-79
2020/12/17 01:30:13;;;;;;;7.45;5.30;;;10.50;99.90;;;;;;5092395;28;20558;-77
2020/12/17 01:32:39;;;;;;;6.28;5.20;;;10.50;99.90;;;;;;5083053;28;20548;-77
2020/12/17 01:35:07;;;;;;;8.63;5.65;;;10.60;99.90;;;;;;5095781;28;20218;-77
2020/12/17 01:37:33;;;;;;;6.97;5.20;;;10.60;99.90;;;;;;5095221;28;20251;-78
2020/12/17 01:40:00;;;;;;;5.65;5.00;;;10.60;99.90;;;;;;5095733;28;20198;-78
2020/12/17 01:42:26;;;;;;;6.85;5.03;;;10.70;99.90;;;;;;5095607;28;20212;-78
2020/12/17 01:44:52;;;;;;;8.02;5.55;;;10.60;99.90;;;;;;5095835;28;20383;-78
2020/12/17 01:47:19;;;;;;;6.05;5.25;;;10.70;99.90;;;;;;5095797;28;20561;-78
2020/12/17 01:49:46;;;;;;;5.97;5.38;;;10.70;99.90;;;;;;5095528;28;20214;-78
2020/12/17 01:52:14;;;;;;;7.05;5.68;;;10.70;99.90;;;;;;5095614;28;20286;-79
2020/12/17 01:54:52;;;;;;;5.70;5.13;;;10.60;99.90;;;;;;5095497;28;20313;-77
2020/12/17 01:57:21;;;;;;;7.28;5.28;;;10.60;99.90;;;;;;5095248;28;20198;-76
2020/12/17 01:59:48;;;;;;;7.57;6.15;;;10.60;99.90;;;;;;5095389;28;20665;-76
2020/12/17 02:02:16;;;;;;;7.97;5.88;;;10.60;99.90;;;;;;5095407;28;20208;-77
2020/12/17 02:04:44;;;;;;;6.18;5.32;;;10.70;99.90;;;;;;5095389;28;20232;-76
2020/12/17 02:07:11;;;;;;;9.75;6.07;;;10.50;99.90;;;;;;5095404;28;20617;-76
2020/12/17 02:09:39;;;;;;;10.23;6.88;;;10.50;99.90;;;;;;5095016;28;20657;-76
2020/12/17 02:12:06;;;;;;;8.20;6.38;;;10.40;99.90;;;;;;5095477;28;20225;-75
2020/12/17 02:14:32;;;;;;;9.55;6.70;;;10.50;99.90;;;;;;5094972;28;20209;-76
2020/12/17 02:16:58;;;;;;;9.30;7.13;;;10.40;99.90;;;;;;5095125;28;20202;-76
2020/12/17 02:19:25;;;;;;;8.32;7.30;;;10.50;99.90;;;;;;5094838;28;20206;-76
2020/12/17 02:21:51;;;;;;;9.65;7.65;;;10.40;99.90;;;;;;5095028;28;20225;-76
2020/12/17 02:24:20;;;;;;;9.25;7.32;;;10.40;99.90;;;;;;5094425;28;20621;-77
2020/12/17 02:26:46;;;;;;;9.60;7.53;;;10.40;99.90;;;;;;5095140;28;20201;-76
2020/12/17 02:29:13;;;;;;;8.48;7.38;;;10.40;99.90;;;;;;5095172;28;20194;-77
2020/12/17 02:31:39;;;;;;;9.43;6.90;;;10.40;99.90;;;;;;5094324;28;20649;-77
2020/12/17 02:34:05;;;;;;;9.43;7.22;;;10.40;99.90;;;;;;5095173;28;20309;-77
2020/12/17 02:36:32;;;;;;;9.23;8.13;;;10.30;99.90;;;;;;5094781;28;20202;-78
2020/12/17 02:38:59;;;;;;;9.32;7.65;;;10.40;99.90;;;;;;5094847;28;20340;-77
2020/12/17 02:41:26;;;;;;;10.88;8.40;;;10.30;99.90;;;;;;5093218;28;20202;-78
2020/12/17 02:43:53;;;;;;;12.30;8.30;;;10.30;99.90;;;;;;5080468;28;20592;-77
2020/12/17 02:46:20;;;;;;;10.50;7.95;;;10.30;99.90;;;;;;5094629;28;20202;-78
2020/12/17 02:48:49;;;;;;;11.52;8.15;;;10.30;99.90;;;;;;5094487;28;20254;-78
2020/12/17 02:51:16;;;;;;;12.80;8.63;;;10.30;99.90;;;;;;5094708;28;20319;-80
2020/12/17 02:53:42;;;;;;;13.75;8.40;;;10.30;99.90;;;;;;5094447;28;20198;-79
2020/12/17 02:56:12;;;;;;;9.35;8.27;;;10.40;99.90;;;;;;5094587;28;20205;-78
2020/12/17 02:58:39;;;;;;;10.20;8.82;;;10.20;99.90;;;;;;5094357;28;20210;-78
2020/12/17 03:01:05;;;;;;;12.13;9.43;;;10.20;99.90;;;;;;5093751;28;20221;-77
2020/12/17 03:03:32;;;;;;;14.60;9.30;;;10.20;99.90;;;;;;5094118;28;20201;-78
2020/12/17 03:05:58;;;;;;;9.77;8.80;;;10.20;99.90;;;;;;5094438;28;20216;-77
2020/12/17 03:08:26;;;;;;;12.48;9.52;;;10.20;99.90;;;;;;5094481;28;20246;-78
2020/12/17 03:10:52;;;;;;;11.55;9.50;;;10.20;99.90;;;;;;5094062;28;20199;-78
2020/12/17 03:13:19;;;;;;;12.48;9.82;;;10.20;99.90;;;;;;5094554;28;20206;-77
2020/12/17 03:15:46;;;;;;;11.50;9.38;;;10.20;99.90;;;;;;5094120;28;20223;-77
2020/12/17 03:18:12;;;;;;;12.80;9.90;;;10.20;99.90;;;;;;5093833;28;20200;-77
2020/12/17 03:20:38;;;;;;;13.13;9.82;;;10.10;99.90;;;;;;5093862;28;20202;-77
2020/12/17 03:23:05;;;;;;;12.10;9.27;;;10.10;99.90;;;;;;5094071;28;20233;-77
2020/12/17 03:25:31;;;;;;;12.10;9.40;;;10.10;99.90;;;;;;5093935;28;20232;-76
2020/12/17 03:27:58;;;;;;;11.77;8.60;;;10.10;99.90;;;;;;5093240;28;20195;-76
2020/12/17 03:30:24;;;;;;;12.38;8.50;;;10.10;99.90;;;;;;5093991;28;20202;-76
2020/12/17 03:32:51;;;;;;;9.50;8.30;;;10.10;99.90;;;;;;5093432;28;20205;-76
2020/12/17 03:35:17;;;;;;;15.23;8.88;;;10.10;99.90;;;;;;5093935;28;20599;-76
2020/12/17 03:37:44;;;;;;;11.73;8.10;;;10.10;99.90;;;;;;5093298;28;20543;-79
2020/12/17 03:40:10;;;;;;;8.27;7.47;;;10.00;99.90;;;;;;5093265;28;20281;-76
2020/12/17 03:42:36;;;;;;;9.77;8.00;;;10.10;99.90;;;;;;5093306;28;20202;-77
2020/12/17 03:45:04;;;;;;;11.23;8.20;;;10.10;99.90;;;;;;5093711;28;20230;-76
2020/12/17 03:47:30;;;;;;;9.13;8.05;;;10.00;99.90;;;;;;5093672;28;20202;-75
2020/12/17 03:49:57;;;;;;;9.10;8.13;;;10.10;99.90;;;;;;5093014;28;20611;-75
2020/12/17 03:52:24;;;;;;;11.43;8.25;;;10.00;99.90;;;;;;5093554;28;20198;-74
2020/12/17 03:54:50;;;;;;;11.98;8.98;;;10.00;99.90;;;;;;5093199;28;20313;-74
2020/12/17 03:57:16;;;;;;;8.63;7.80;;;10.00;99.90;;;;;;5092424;28;20198;-74
2020/12/17 03:59:43;;;;;;;12.00;8.85;;;10.00;99.90;;;;;;5093322;28;20202;-74
2020/12/17 04:02:09;;;;;;;9.63;8.68;;;10.00;99.90;;;;;;5093038;28;20210;-77
2020/12/17 04:04:35;;;;;;;9.27;8.25;;;10.00;99.90;;;;;;5093298;28;20232;-77
2020/12/17 04:07:03;;;;;;;10.80;8.60;;;9.90;99.90;;;;;;5093356;28;20206;-74
2020/12/17 04:09:29;;;;;;;9.10;7.57;;;9.90;99.90;;;;;;5093420;28;20198;-76
2020/12/17 04:11:55;;;;;;;10.43;8.25;;;9.90;99.90;;;;;;5092840;28;20202;-75
2020/12/17 04:14:21;;;;;;;9.27;8.02;;;9.90;99.90;;;;;;5093093;28;20202;-75
2020/12/17 04:16:48;;;;;;;11.68;8.32;;;9.90;99.90;;;;;;5093140;28;20259;-76
2020/12/17 04:19:14;;;;;;;10.23;8.98;;;9.90;99.90;;;;;;5092984;28;20198;-75
2020/12/17 04:21:41;;;;;;;11.38;8.50;;;9.80;99.90;;;;;;5093018;28;20210;-75
2020/12/17 04:24:08;;;;;;;11.48;9.20;;;9.80;99.90;;;;;;5092599;28;20673;-77
2020/12/17 04:26:35;;;;;;;12.35;9.70;;;9.80;99.90;;;;;;5093028;28;20568;-76
2020/12/17 04:29:01;;;;;;;10.15;9.15;;;9.70;99.90;;;;;;5092734;28;20194;-77
2020/12/17 04:31:28;;;;;;;10.27;8.80;;;9.80;99.90;;;;;;5078722;28;20641;-74
2020/12/17 04:33:54;;;;;;;10.52;8.77;;;9.80;99.90;;;;;;5092525;28;20305;-75
2020/12/17 04:36:21;;;;;;;9.85;8.70;;;9.70;99.90;;;;;;5092572;28;20208;-75
2020/12/17 04:38:47;;;;;;;9.15;8.25;;;9.80;99.90;;;;;;5092805;28;20292;-75
2020/12/17 04:41:18;;;;;;;10.30;8.18;;;9.70;99.90;;;;;;5092725;28;20205;-75
2020/12/17 04:43:46;;;;;;;11.43;8.63;;;9.70;99.90;;;;;;5092125;28;20198;-75
2020/12/17 04:46:14;;;;;;;11.07;8.32;;;9.70;99.90;;;;;;5092554;28;20202;-75
2020/12/17 04:48:41;;;;;;;10.55;7.60;;;9.70;99.90;;;;;;5092720;28;20233;-76
2020/12/17 04:51:08;;;;;;;10.20;7.82;;;9.70;99.90;;;;;;5092911;28;20190;-75
2020/12/17 04:53:37;;;;;;;9.32;7.78;;;9.60;99.90;;;;;;5092330;28;20254;-75
2020/12/17 04:56:04;;;;;;;8.02;7.15;;;9.60;99.90;;;;;;5092524;28;20254;-76
2020/12/17 04:58:34;;;;;;;9.73;7.05;;;9.60;99.90;;;;;;5092645;28;20319;-75
2020/12/17 05:01:02;;;;;;;9.70;7.07;;;9.60;99.90;;;;;;5092460;28;20706;-75
2020/12/17 05:03:30;;;;;;;7.03;5.53;;;9.50;99.90;;;;;;5092655;28;20255;-75
2020/12/17 05:06:01;;;;;;;7.07;6.38;;;9.50;99.90;;;;;;5078304;28;20672;-76
2020/12/17 05:08:27;;;;;;;6.78;5.60;;;9.50;99.90;;;;;;5095137;28;20198;-76
2020/12/17 05:10:53;;;;;;;6.82;5.53;;;9.50;99.90;;;;;;5096416;28;20230;-76
2020/12/17 05:13:20;;;;;;;9.07;5.22;;;9.50;99.90;;;;;;5096416;28;20194;-76
2020/12/17 05:15:47;;;;;;;6.25;4.97;;;9.60;99.90;;;;;;5096656;28;20306;-76
2020/12/17 05:18:13;;;;;;;5.75;5.05;;;9.40;99.90;;;;;;5096312;28;20646;-76
2020/12/17 05:20:40;;;;;;;6.18;4.53;;;9.40;99.90;;;;;;5095901;28;20653;-76
2020/12/17 05:23:06;;;;;;;5.15;4.65;;;9.40;99.90;;;;;;5096437;28;20570;-78
2020/12/17 05:25:33;;;;;;;5.70;4.70;;;9.30;99.90;;;;;;5096543;28;20304;-77
2020/12/17 05:28:01;;;;;;;7.22;5.80;;;9.40;99.90;;;;;;5096150;28;20200;-77
2020/12/17 05:30:32;;;;;;;11.98;5.05;;;9.40;99.90;;;;;;5096379;28;20202;-77
2020/12/17 05:33:00;;;;;;;7.80;5.05;;;9.30;99.90;;;;;;5095772;28;20206;-77
2020/12/17 05:35:32;;;;;;;7.25;4.88;;;9.40;99.90;;;;;;5096054;28;20213;-75
2020/12/17 05:38:00;;;;;;;7.55;5.13;;;9.20;99.90;;;;;;5095954;28;20247;-75
2020/12/17 05:40:27;;;;;;;8.70;5.05;;;9.30;99.90;;;;;;5095785;28;20276;-75
2020/12/17 05:42:54;;;;;;;7.50;4.88;;;9.30;99.90;;;;;;5096044;28;20202;-75
2020/12/17 05:45:24;;;;;;;5.53;4.93;;;9.40;99.90;;;;;;5095336;28;20716;-74
2020/12/17 05:48:13;;;;;;;5.55;4.82;;;9.20;99.90;;;;;;5095514;28;20653;-75
2020/12/17 05:50:54;;;;;;;5.72;5.13;;;9.20;99.90;;;;;;5095907;28;20255;-75
2020/12/17 05:53:21;;;;;;;6.72;4.68;;;9.30;99.90;;;;;;5095516;28;20216;-74
2020/12/17 05:55:51;;;;;;;6.30;4.72;;;9.20;99.90;;;;;;5095423;28;20202;-75
2020/12/17 05:58:17;;;;;;;6.47;4.82;;;9.20;99.90;;;;;;5095815;28;20276;-74
2020/12/17 06:00:43;;;;;;;7.60;4.82;;;9.10;99.90;;;;;;5095120;28;20247;-75
2020/12/17 06:03:11;;;;;;;5.75;4.13;;;9.10;99.90;;;;;;5095409;28;20202;-74
2020/12/17 06:05:43;;;;;;;5.03;4.53;;;9.10;99.90;;;;;;5095152;28;20214;-76
2020/12/17 06:08:17;;;;;;;6.38;4.78;;;9.10;99.90;;;;;;5095326;28;20186;-75
2020/12/17 06:10:48;;;;;;;5.05;4.40;;;9.10;99.90;;;;;;5095389;28;20194;-75
2020/12/17 06:13:15;;;;;;;5.72;4.55;;;9.10;99.90;;;;;;5095520;28;20260;-75
2020/12/17 06:15:45;;;;;;;8.55;4.47;;;9.10;99.90;;;;;;5095056;28;20202;-79
2020/12/17 06:18:12;;;;;;;5.53;4.32;;;9.10;99.90;;;;;;5095340;28;20202;-75
2020/12/17 06:20:43;;;;;;;5.28;4.15;;;9.10;99.90;;;;;;5094423;28;20231;-76
2020/12/17 06:23:14;;;;;;;5.60;3.72;;;9.10;99.90;;;;;;5095044;28;20194;-75
2020/12/17 06:25:41;;;;;;;6.53;3.45;;;9.10;99.90;;;;;;5094729;28;20220;-75
2020/12/17 06:28:27;;;;;;;9.75;4.25;;;9.10;99.90;;;;;;5095112;28;20198;-75
2020/12/17 06:30:56;;;;;;;4.32;3.90;;;9.00;99.90;;;;;;5094834;28;20196;-75
2020/12/17 06:33:26;;;;;;;4.72;3.67;;;9.00;99.90;;;;;;5095028;28;20217;-75
2020/12/17 06:35:58;;;;;;;4.78;3.83;;;9.00;99.90;;;;;;5095006;28;20194;-75
2020/12/17 06:38:26;;;;;;;4.05;3.63;;;9.00;99.90;;;;;;5095178;28;20284;-75
2020/12/17 06:40:53;;;;;;;4.05;3.42;;;8.90;99.90;;;;;;5094827;28;20563;-75
2020/12/17 06:43:31;;;;;;;5.25;3.65;;;9.00;99.90;;;;;;5094794;28;20202;-76
2020/12/17 06:45:57;;;;;;;5.85;3.00;;;9.00;99.90;;;;;;5094362;28;20614;-75
2020/12/17 06:48:31;;;;;;;4.63;3.50;;;9.10;99.90;;;;;;5094480;28;20202;-78
2020/12/17 06:50:59;;;;;;;4.85;3.67;;;9.10;99.90;;;;;;5094742;28;20195;-77
2020/12/17 06:53:39;;;;;;;4.70;3.90;;;9.00;99.90;;;;;;5094492;28;20205;-78
2020/12/17 06:56:05;;;;;;;7.88;3.55;;;9.10;99.90;;;;;;5094676;28;20198;-77
2020/12/17 06:58:32;;;;;;;4.80;3.47;;;9.20;99.90;;;;;;5093925;28;20194;-76
2020/12/17 07:00:58;;;;;;;6.97;3.38;;;9.20;99.90;;;;;;5094515;28;20196;-76
2020/12/17 07:03:47;;;;;;;5.60;3.65;;;9.20;99.90;;;;;;5094527;28;20202;-76
2020/12/17 07:06:20;;;;;;;6.35;4.38;;;9.30;99.90;;;;;;5082266;28;20207;-76
2020/12/17 07:08:48;;;;;;;5.80;3.75;;;9.30;99.90;;;;;;5094390;28;20297;-76
2020/12/17 07:11:36;;;;;;;5.78;4.07;;;9.30;99.90;;;;;;5094360;28;20202;-76
2020/12/17 07:14:04;;;;;;;6.45;4.20;;;9.30;99.90;;;;;;5094011;28;20339;-76
2020/12/17 07:16:32;;;;;;;5.20;4.40;;;9.30;99.90;;;;;;5094176;28;20630;-75
2020/12/17 07:19:19;;;;;;;4.28;3.88;;;9.30;99.90;;;;;;5093923;28;20229;-75
2020/12/17 07:21:50;;;;;;;7.35;4.35;;;9.30;99.90;;;;;;5093863;28;20281;-75
2020/12/17 07:24:25;;;;;;;7.50;4.57;;;9.40;99.90;;;;;;5093790;28;20230;-76
2020/12/17 07:26:53;;;;;;;7.88;4.70;;;9.40;99.90;;;;;;5093867;28;20297;-75
2020/12/17 07:29:39;;;;;;;8.88;4.80;;;9.30;99.90;;;;;;5093856;28;20194;-76
2020/12/17 07:32:24;;;;;;;7.85;4.57;;;9.40;99.90;;;;;;5092975;28;20194;-76
2020/12/17 07:34:51;;;;;;;7.20;4.55;;;9.30;99.90;;;;;;5088013;28;20294;-75
2020/12/17 07:37:42;;;;;;;5.90;5.18;;;9.30;99.90;;;;;;5085803;28;20254;-77
2020/12/17 07:40:35;;;;;;;7.95;5.45;;;9.20;99.90;;;;;;5080781;28;20191;-75
2020/12/17 07:43:07;;;;;;;6.80;5.35;;;9.10;99.90;;;;;;5093928;28;20205;-76
2020/12/17 07:45:43;;;;;;;8.15;5.78;;;9.00;99.90;;;;;;5079704;28;20577;-76
2020/12/17 07:48:35;;;;;;;8.77;5.75;;;9.00;99.90;;;;;;5092982;28;20660;-77
2020/12/17 07:51:03;;;;;;;7.18;6.00;;;8.90;99.90;;;;;;5093261;28;20203;-76
2020/12/17 07:53:30;;;;;;;9.00;6.00;;;8.90;99.90;;;;;;5092954;28;20289;-76
2020/12/17 07:55:56;;;;;;;7.88;6.55;;;8.90;99.90;;;;;;5092494;28;20684;-76
2020/12/17 07:58:22;;;;;;;9.98;6.90;;;8.90;99.90;;;;;;5093038;28;20721;-76
2020/12/17 08:00:49;;;;;;;8.68;7.32;;;8.90;99.90;;;;;;5092836;28;20685;-75
2020/12/17 08:03:18;;;;;;;10.07;7.68;;;8.90;99.90;;;;;;5092760;28;20667;-76
2020/12/17 08:05:45;;;;;;;11.48;7.63;;;8.90;99.90;;;;;;5089702;28;20217;-76
2020/12/17 08:08:14;;;;;;;9.65;6.90;;;8.80;99.90;;;;;;5092259;28;20194;-75
2020/12/17 08:10:42;;;;;;;10.65;7.10;;;8.80;99.90;;;;;;5092684;28;20564;-76
2020/12/17 08:13:08;;;;;;;14.05;7.57;;;8.70;99.90;;;;;;5092643;28;20575;-76
2020/12/17 08:15:35;;;;;;;12.60;7.82;;;8.80;99.90;;;;;;5092530;28;20617;-78
2020/12/17 08:18:02;;;;;;;10.88;8.35;;;8.90;99.90;;;;;;5093033;28;20201;-76
2020/12/17 08:20:29;;;;;;;17.73;8.93;;;8.80;99.90;;;;;;5092854;28;20657;-75
2020/12/17 08:22:55;;;;;;;17.85;8.82;;;8.80;99.90;;;;;;5092574;28;20257;-76
2020/12/17 08:25:23;;;;;;;13.68;7.78;;;8.90;99.90;;;;;;5092820;28;20301;-74
2020/12/17 08:27:51;;;;;;;10.90;8.20;;;8.90;99.90;;;;;;5091682;28;20292;-75
2020/12/17 08:30:20;;;;;;;11.90;8.85;;;9.10;99.90;;;;;;5091846;28;20205;-75
2020/12/17 08:32:52;;;;;;;16.23;7.97;;;9.20;99.90;;;;;;5092425;28;20217;-74
2020/12/17 08:35:22;;;;;;;12.18;8.25;;;9.30;99.90;;;;;;5092857;28;20293;-74
2020/12/17 08:37:53;;;;;;;10.27;8.18;;;9.40;99.90;;;;;;5091677;28;20653;-74
2020/12/17 08:40:23;;;;;;;8.57;7.15;;;9.40;99.90;;;;;;5092289;28;20194;-74
2020/12/17 08:42:56;;;;;;;13.38;7.20;;;9.40;99.90;;;;;;5094588;28;20202;-75
2020/12/17 08:45:26;;;;;;;12.48;6.88;;;9.50;99.90;;;;;;5082758;28;20572;-74
2020/12/17 08:47:57;;;;;;;14.48;8.02;;;9.50;99.90;;;;;;5097042;28;20202;-74
2020/12/17 08:50:23;;;;;;;13.48;7.88;;;9.60;99.90;;;;;;5096899;28;20194;-74
2020/12/17 08:52:50;;;;;;;8.75;7.00;;;9.80;99.90;;;;;;5096951;28;20198;-74
2020/12/17 08:55:17;;;;;;;13.20;7.30;;;9.90;99.90;;;;;;5094992;28;20287;-75
2020/12/17 08:57:44;;;;;;;10.52;6.63;;;9.90;99.90;;;;;;5077002;28;20292;-74
2020/12/17 09:00:16;;;;;;;15.00;7.03;;;10.00;99.90;;;;;;5071009;28;21070;-79
2020/12/17 09:02:42;;;;;;;8.63;5.75;;;10.10;99.90;;;;;;5077997;28;20615;-75
2020/12/17 09:05:12;;;;;;;9.60;5.78;;;10.20;99.90;;;;;;5082644;28;20244;-76
2020/12/17 09:07:40;;;;;;;11.50;5.97;;;10.50;99.90;;;;;;5081910;28;20203;-76
2020/12/17 09:10:08;;;;;;;8.45;5.38;;;10.60;99.90;;;;;;5080666;28;20293;-74
2020/12/17 09:12:35;;;;;;;9.85;5.70;;;10.60;99.90;;;;;;5082150;28;20194;-75
2020/12/17 09:15:06;;;;;;;14.77;5.32;;;10.40;99.90;;;;;;5082094;28;20214;-74
2020/12/17 09:17:33;;;;;;;11.15;5.50;;;10.40;99.90;;;;;;5082248;28;20209;-74
2020/12/17 09:20:00;;;;;;;10.25;5.93;;;10.30;99.90;;;;;;5081683;28;20205;-74
2020/12/17 09:22:34;;;;;;;7.70;5.22;;;10.40;99.90;;;;;;5080421;28;20207;-75
2020/12/17 09:25:00;;;;;;;10.55;5.65;;;10.20;99.90;;;;;;5083515;28;20227;-73
2020/12/17 09:27:28;;;;;;;13.65;5.80;;;10.10;99.90;;;;;;5080938;28;20247;-75
2020/12/17 09:30:08;;;;;;;13.25;5.78;;;10.10;99.90;;;;;;5081116;28;20194;-76
2020/12/17 09:32:37;;;;;;;8.60;5.10;;;10.00;99.90;;;;;;5081594;28;20210;-76
2020/12/17 09:35:06;;;;;;;8.32;5.45;;;10.00;99.90;;;;;;5081832;28;20217;-76
2020/12/17 09:37:33;;;;;;;11.75;5.65;;;10.00;99.90;;;;;;5081172;28;20226;-78
2020/12/17 09:40:00;;;;;;;8.98;5.00;;;9.90;99.90;;;;;;5081581;28;20288;-74
2020/12/17 09:42:26;;;;;;;11.95;5.65;;;9.90;99.90;;;;;;5081782;28;20199;-74
2020/12/17 09:44:53;;;;;;;8.73;5.18;;;10.00;99.90;;;;;;5081259;28;20225;-76
2020/12/17 09:47:33;;;;;;;10.57;5.00;;;10.00;99.90;;;;;;5086373;28;20286;-75
2020/12/17 09:50:12;;;;;;;9.73;5.22;;;9.90;99.90;;;;;;5080508;28;20216;-76
2020/12/17 09:52:38;;;;;;;9.02;4.68;;;9.90;99.90;;;;;;5079921;28;20649;-74
2020/12/17 09:55:05;;;;;;;10.80;5.15;;;9.90;99.90;;;;;;5080472;28;20210;-75
2020/12/17 09:57:39;;;;;;;13.35;5.13;;;10.00;99.90;;;;;;5079963;28;20214;-76
2020/12/17 10:00:10;;;;;;;15.93;5.55;;;10.00;99.90;;;;;;5080445;28;20190;-75
2020/12/17 10:02:37;;;;;;;9.20;4.53;;;10.00;99.90;;;;;;5079942;28;20298;-75
2020/12/17 10:05:04;;;;;;;14.40;4.68;;;10.00;99.90;;;;;;5079972;28;20299;-75
2020/12/17 10:07:31;;;;;;;12.15;5.40;;;9.90;99.90;;;;;;5081393;28;20210;-77
2020/12/17 10:09:58;;;;;;;14.20;5.28;;;9.90;99.90;;;;;;5080191;28;20207;-74
2020/12/17 10:12:24;;;;;;;11.45;5.05;;;9.90;99.90;;;;;;5078325;28;20200;-75
2020/12/17 10:14:51;;;;;;;8.52;4.47;;;9.90;99.90;;;;;;5080930;28;20203;-76
2020/12/17 10:17:18;;;;;;;9.18;5.50;;;10.00;99.90;;;;;;5080502;28;20688;-77
2020/12/17 10:19:44;;;;;;;8.52;4.63;;;10.00;99.90;;;;;;5080715;28;20209;-75
2020/12/17 10:22:10;;;;;;;11.35;5.28;;;10.00;99.90;;;;;;5080221;28;20202;-76
2020/12/17 10:24:38;;;;;;;7.93;4.43;;;10.10;99.90;;;;;;5081191;28;20260;-75
2020/12/17 10:27:04;;;;;;;9.50;4.90;;;10.00;99.90;;;;;;5079588;28;20199;-76
2020/12/17 10:29:30;;;;;;;11.30;4.18;;;10.00;99.90;;;;;;5080504;28;20220;-75
2020/12/17 10:31:57;;;;;;;9.60;4.15;;;10.10;99.90;;;;;;5080035;28;20289;-76
2020/12/17 10:34:24;;;;;;;9.02;3.90;;;10.20;99.90;;;;;;5083492;28;20206;-75
2020/12/17 10:36:51;;;;;;;9.32;4.45;;;10.20;99.90;;;;;;5093128;28;20605;-76
2020/12/17 10:39:17;;;;;;;10.48;4.18;;;10.30;99.90;;;;;;5093656;28;20246;-75
2020/12/17 10:41:44;;;;;;;8.27;4.20;;;10.40;99.90;;;;;;5093609;28;20287;-74
2020/12/17 10:44:11;;;;;;;9.35;3.97;;;10.40;99.90;;;;;;5094560;28;20194;-75
2020/12/17 10:46:38;;;;;;;10.63;3.75;;;10.40;99.90;;;;;;5078048;28;20594;-75
2020/12/17 10:49:05;;;;;;;7.93;3.25;;;10.40;99.90;;;;;;5092714;28;20194;-75
2020/12/17 10:51:32;;;;;;;11.65;3.67;;;10.40;99.90;;;;;;5092668;28;20209;-77
2020/12/17 10:53:58;;;;;;;6.32;3.03;;;10.50;99.90;;;;;;5092337;28;20194;-76
2020/12/17 10:56:24;;;;;;;6.88;3.13;;;10.50;99.90;;;;;;5092206;28;20292;-76
2020/12/17 10:58:52;;;;;;;10.15;3.55;;;10.40;99.90;;;;;;5092544;28;20256;-75
2020/12/17 11:01:23;;;;;;;8.18;3.83;;;10.40;99.90;;;;;;5093635;28;20202;-75
2020/12/17 11:03:51;;;;;;;11.10;3.63;;;10.40;99.90;;;;;;5077720;28;20195;-75
2020/12/17 11:06:18;;;;;;;7.22;3.38;;;10.40;99.90;;;;;;5082770;28;20225;-74
2020/12/17 11:08:45;;;;;;;8.52;3.22;;;10.30;99.90;;;;;;5080061;28;20206;-76
2020/12/17 11:11:12;;;;;;;11.48;3.38;;;10.30;99.90;;;;;;5094119;28;20604;-75
2020/12/17 11:13:38;;;;;;;9.98;3.67;;;10.30;99.90;;;;;;5093919;28;20692;-75
2020/12/17 11:16:05;;;;;;;8.70;2.90;;;10.20;99.90;;;;;;5093592;28;20202;-75
2020/12/17 11:18:31;;;;;;;6.82;2.70;;;10.20;99.90;;;;;;5094079;28;20198;-76
2020/12/17 11:20:58;;;;;;;7.85;3.00;;;10.10;99.90;;;;;;5094046;28;20208;-75
2020/12/17 11:23:24;;;;;;;8.93;3.10;;;10.10;99.90;;;;;;5094153;28;20198;-75
2020/12/17 11:25:51;;;;;;;7.57;2.90;;;10.10;99.90;;;;;;5093319;28;20684;-74
2020/12/17 11:28:17;;;;;;;10.50;2.78;;;10.10;99.90;;;;;;5089324;28;20636;-75
2020/12/17 11:30:43;;;;;;;9.85;3.20;;;10.20;99.90;;;;;;5094157;28;20280;-75
2020/12/17 11:33:11;;;;;;;7.95;3.40;;;10.20;99.90;;;;;;5089367;28;20675;-75
2020/12/17 11:35:37;;;;;;;10.30;3.20;;;10.10;99.90;;;;;;5093677;28;20230;-75
2020/12/17 11:38:03;;;;;;;7.78;3.25;;;10.30;99.90;;;;;;5093621;28;20737;-74
2020/12/17 11:40:30;;;;;;;8.13;3.17;;;10.30;99.90;;;;;;5084281;28;20243;-75
2020/12/17 11:42:57;;;;;;;11.10;3.33;;;10.40;99.90;;;;;;5081014;28;20653;-75
2020/12/17 11:45:24;;;;;;;15.35;3.35;;;10.40;99.90;;;;;;5092169;28;20218;-75
2020/12/17 11:47:50;;;;;;;9.38;3.03;;;10.50;99.90;;;;;;5093921;28;20231;-75
2020/12/17 11:50:18;;;;;;;7.03;2.90;;;10.50;99.90;;;;;;5093243;28;20675;-75
2020/12/17 11:52:44;;;;;;;9.77;3.30;;;10.60;99.90;;;;;;5093852;28;20644;-75
2020/12/17 11:55:11;;;;;;;9.10;3.25;;;10.60;99.90;;;;;;5093737;28;20204;-76
2020/12/17 11:57:37;;;;;;;8.25;3.03;;;10.80;99.90;;;;;;5093407;28;20200;-76
2020/12/17 12:00:06;;;;;;;8.93;3.15;;;10.80;99.90;;;;;;5093385;28;20205;-76
2020/12/17 12:02:32;;;;;;;6.32;2.83;;;10.90;99.90;;;;;;5078111;28;20206;-77
2020/12/17 12:04:59;;;;;;;4.80;2.63;;;11.10;99.90;;;;;;5077784;28;20222;-77
2020/12/17 12:07:26;;;;;;;8.18;3.25;;;11.00;99.90;;;;;;5078833;28;20293;-76
2020/12/17 12:09:53;;;;;;;9.93;3.50;;;11.10;99.90;;;;;;5078880;28;20206;-76
2020/12/17 12:12:19;;;;;;;8.90;2.75;;;11.30;99.90;;;;;;5078431;28;20258;-76
2020/12/17 12:14:45;;;;;;;8.82;3.05;;;11.20;99.90;;;;;;5078687;28;20599;-77
2020/12/17 12:17:12;;;;;;;8.70;3.25;;;11.00;99.90;;;;;;5078440;28;20203;-77
2020/12/17 12:19:38;;;;;;;6.07;2.75;;;10.90;99.90;;;;;;5078133;28;20334;-76
2020/12/17 12:22:04;;;;;;;6.43;3.03;;;11.00;99.90;;;;;;5080075;28;20209;-77
2020/12/17 12:24:32;;;;;;;6.57;2.78;;;10.90;99.90;;;;;;5078791;28;20203;-78
2020/12/17 12:26:58;;;;;;;7.25;2.75;;;10.90;99.90;;;;;;5078444;28;20209;-77
2020/12/17 12:29:25;;;;;;;8.93;3.17;;;10.90;99.90;;;;;;5077842;28;20589;-77
2020/12/17 12:31:51;;;;;;;6.93;2.83;;;10.90;99.90;;;;;;5078349;28;20197;-74
2020/12/17 12:34:18;;;;;;;6.32;2.88;;;10.80;99.90;;;;;;5077838;28;20249;-76
2020/12/17 12:36:48;;;;;;;7.32;2.90;;;10.80;99.90;;;;;;5078542;28;20209;-75
2020/12/17 12:39:15;;;;;;;6.53;2.67;;;10.70;99.90;;;;;;5077974;28;20228;-76
2020/12/17 12:41:44;;;;;;;10.68;2.92;;;10.80;99.90;;;;;;5077712;28;20217;-77
2020/12/17 12:44:10;;;;;;;7.25;2.50;;;10.90;99.90;;;;;;5079169;28;20198;-76
2020/12/17 12:46:37;;;;;;;10.55;4.15;;;10.90;99.90;;;;;;5078824;28;20225;-78
2020/12/17 12:49:03;;;;;;;8.40;2.65;;;11.00;99.90;;;;;;5078529;28;20206;-75
2020/12/17 12:51:29;;;;;;;8.98;3.00;;;11.00;99.90;;;;;;5079563;28;20210;-77
2020/12/17 12:53:56;;;;;;;6.93;3.40;;;11.00;99.90;;;;;;5079234;28;20293;-77